createdAt,value
2024-02-06T00:06:01.153Z,53.52
2024-02-06T00:16:12.264Z,53.84
2024-02-06T00:26:14.083Z,55.24
2024-02-06T00:36:26.192Z,53.75
2024-02-06T00:46:30.698Z,50.68
2024-02-06T00:56:34.066Z,48.38
2024-02-06T01:06:36.545Z,47.09
2024-02-06T01:16:38.637Z,46.43
2024-02-06T01:26:41.713Z,46.35
2024-02-06T01:36:53.675Z,46.62
2024-02-06T01:46:58.334Z,46.71
2024-02-06T01:57:02.933Z,48.22
2024-02-06T02:07:08.028Z,48.18
2024-02-06T02:17:09.972Z,48.32
2024-02-06T02:27:15.416Z,48.23
2024-02-06T02:37:18.342Z,51.45
2024-02-06T02:47:20.672Z,56.91
2024-02-06T02:57:23.689Z,62.13
2024-02-06T03:07:25.658Z,62.03
2024-02-06T03:17:33.415Z,68.44
2024-02-06T03:27:40.389Z,75.92
2024-02-06T03:37:42.492Z,73.78
2024-02-06T03:47:44.828Z,62.13
2024-02-06T03:57:50.054Z,54.47
2024-02-06T04:07:52.386Z,49.85
2024-02-06T04:18:01.425Z,50.61
2024-02-06T04:28:03.482Z,64.23
2024-02-06T04:38:09.352Z,89.13
2024-02-06T04:48:11.209Z,100.00
2024-02-06T04:58:13.556Z,100.00
2024-02-06T05:08:15.428Z,100.00
2024-02-06T05:18:18.435Z,100.00
2024-02-06T05:28:21.912Z,100.00
2024-02-06T05:38:24.357Z,100.00
2024-02-06T05:48:29.044Z,100.00
2024-02-06T05:58:32.815Z,100.00
2024-02-06T06:08:38.513Z,100.00
2024-02-06T06:18:41.548Z,100.00
2024-02-06T06:28:43.719Z,100.00
2024-02-06T06:38:45.629Z,100.00
2024-02-06T06:48:48.640Z,100.00
2024-02-06T06:58:51.474Z,100.00
2024-02-06T07:08:55.994Z,100.00
2024-02-06T07:18:58.983Z,100.00
2024-02-06T07:29:01.262Z,100.00
2024-02-06T07:39:05.134Z,100.00
2024-02-06T07:49:07.129Z,100.00
2024-02-06T07:59:12.893Z,100.00
2024-02-06T08:09:15.060Z,91.24
2024-02-06T08:19:19.544Z,70.60
2024-02-06T08:29:41.156Z,67.85
2024-02-06T08:39:43.128Z,67.03
2024-02-06T08:49:45.118Z,52.09
2024-02-06T08:59:52.179Z,52.81
2024-02-06T09:09:58.006Z,50.84
2024-02-06T09:20:00.291Z,48.66
2024-02-06T09:30:13.333Z,47.78
2024-02-06T09:40:21.586Z,43.34
2024-02-06T09:50:23.621Z,44.47
2024-02-06T10:00:27.746Z,36.89
2024-02-06T10:10:31.827Z,31.31
2024-02-06T10:20:48.719Z,31.57
2024-02-06T10:30:54.089Z,26.38
2024-02-06T10:41:06.023Z,26.50
2024-02-06T10:51:28.427Z,28.36
2024-02-06T11:01:43.787Z,25.00
2024-02-06T11:11:46.839Z,22.54
2024-02-06T11:21:57.492Z,20.90
2024-02-06T11:32:03.041Z,22.08
2024-02-06T11:42:04.983Z,21.39
2024-02-06T11:52:09.325Z,20.31
2024-02-06T12:02:12.888Z,18.55
2024-02-06T12:12:23.545Z,20.44
2024-02-06T12:22:25.397Z,25.78
2024-02-06T12:32:27.581Z,23.28
2024-02-06T12:42:29.465Z,23.71
2024-02-06T12:52:31.301Z,22.11
2024-02-06T13:02:35.516Z,19.99
2024-02-06T13:12:47.900Z,19.38
2024-02-06T13:22:52.371Z,19.16
2024-02-06T13:32:54.273Z,17.70
2024-02-06T13:42:56.164Z,21.48
2024-02-06T13:53:02.455Z,22.25
2024-02-06T14:03:11.728Z,20.62
2024-02-06T14:13:19.076Z,21.09
2024-02-06T14:23:24.977Z,24.27
2024-02-06T14:33:29.120Z,24.71
2024-02-06T14:43:32.590Z,25.37
2024-02-06T14:53:36.908Z,25.68
2024-02-06T15:03:41.252Z,28.34
2024-02-06T15:13:43.418Z,30.13
2024-02-06T15:23:47.023Z,31.28
2024-02-06T15:33:54.093Z,32.02
2024-02-06T15:43:57.172Z,32.52
2024-02-06T15:54:00.718Z,33.62
2024-02-06T16:04:04.862Z,34.12
2024-02-06T16:14:07.832Z,35.07
2024-02-06T16:24:12.087Z,35.66
2024-02-06T16:34:15.006Z,35.93
2024-02-06T16:44:24.803Z,36.80
2024-02-06T16:54:29.544Z,37.30
2024-02-06T17:04:31.499Z,37.87
2024-02-06T17:14:35.248Z,38.51
2024-02-06T17:24:37.756Z,39.23
2024-02-06T17:34:41.496Z,39.84
2024-02-06T17:44:50.054Z,40.55
2024-02-06T17:54:51.954Z,40.73
2024-02-06T18:04:56.229Z,41.30
2024-02-06T18:14:58.425Z,41.96
2024-02-06T18:25:01.897Z,42.60
2024-02-06T18:35:04.139Z,43.64
2024-02-06T18:45:06.613Z,44.02
2024-02-06T18:55:13.842Z,44.88
2024-02-06T19:05:16.041Z,45.12
2024-02-06T19:15:18.405Z,45.37
2024-02-06T19:25:21.607Z,46.07
2024-02-06T19:35:23.691Z,46.63
2024-02-06T19:45:25.502Z,47.10
2024-02-06T19:55:28.068Z,47.38
2024-02-06T20:05:29.962Z,48.50
2024-02-06T20:15:34.463Z,49.29
2024-02-06T20:25:36.403Z,49.99
2024-02-06T20:35:38.532Z,51.06
2024-02-06T20:45:42.724Z,52.25
2024-02-06T20:55:44.599Z,53.96
2024-02-06T21:05:47.327Z,55.18
2024-02-06T21:15:49.342Z,57.58
2024-02-06T21:25:51.807Z,59.70
2024-02-06T21:35:53.642Z,63.07
2024-02-06T21:45:56.071Z,65.49
2024-02-06T21:56:08.261Z,67.52
2024-02-06T22:06:17.443Z,67.81
2024-02-06T22:16:21.674Z,67.50
2024-02-06T22:26:25.208Z,67.52
2024-02-06T22:36:28.630Z,66.81
2024-02-06T22:46:30.531Z,65.51
2024-02-06T22:56:32.353Z,64.47
2024-02-06T23:06:36.052Z,65.00
2024-02-06T23:16:38.356Z,64.60
2024-02-06T23:26:40.230Z,64.73
2024-02-06T23:36:42.052Z,63.54
2024-02-06T23:46:43.890Z,61.62
2024-02-06T23:56:45.786Z,61.09
